sensor_id;sensor_type;location;lat;lon;timestamp;P1;durP1;ratioP1;P2;durP2;ratioP2
49800;SDS011;35698;50.232;30.540;2023-02-13T00:00:40;8.75;;;4.38;;
49800;SDS011;35698;50.232;30.540;2023-02-13T00:01:52;9.40;;;4.44;;
49800;SDS011;35698;50.232;30.540;2023-02-13T00:02:55;8.67;;;4.39;;
49800;SDS011;35698;50.232;30.540;2023-02-13T00:04:06;7.95;;;4.24;;
49800;SDS011;35698;50.232;30.540;2023-02-13T00:05:09;10.08;;;5.75;;
49800;SDS011;35698;50.232;30.540;2023-02-13T00:06:13;11.55;;;6.19;;
49800;SDS011;35698;50.232;30.540;2023-02-13T00:07:24;10.53;;;5.12;;
49800;SDS011;35698;50.232;30.540;2023-02-13T00:08:27;12.43;;;6.41;;
49800;SDS011;35698;50.232;30.540;2023-02-13T00:09:31;12.03;;;5.54;;
49800;SDS011;35698;50.232;30.540;2023-02-13T00:10:34;11.02;;;5.97;;
49800;SDS011;35698;50.232;30.540;2023-02-13T00:11:46;10.39;;;5.74;;
49800;SDS011;35698;50.232;30.540;2023-02-13T00:12:49;10.94;;;5.44;;
49800;SDS011;35698;50.232;30.540;2023-02-13T00:13:52;9.26;;;5.01;;
49800;SDS011;35698;50.232;30.540;2023-02-13T00:14:56;10.91;;;4.93;;
49800;SDS011;35698;50.232;30.540;2023-02-13T00:16:00;9.99;;;5.42;;
49800;SDS011;35698;50.232;30.540;2023-02-13T00:17:13;11.82;;;6.41;;
49800;SDS011;35698;50.232;30.540;2023-02-13T00:18:16;12.81;;;6.19;;
49800;SDS011;35698;50.232;30.540;2023-02-13T00:19:19;13.24;;;5.65;;
49800;SDS011;35698;50.232;30.540;2023-02-13T00:20:23;14.32;;;7.12;;
49800;SDS011;35698;50.232;30.540;2023-02-13T00:21:26;13.31;;;6.62;;
49800;SDS011;35698;50.232;30.540;2023-02-13T00:22:37;9.73;;;4.93;;
49800;SDS011;35698;50.232;30.540;2023-02-13T00:23:41;13.78;;;5.54;;
49800;SDS011;35698;50.232;30.540;2023-02-13T00:24:44;13.65;;;5.58;;
49800;SDS011;35698;50.232;30.540;2023-02-13T00:25:56;13.71;;;5.46;;
49800;SDS011;35698;50.232;30.540;2023-02-13T00:27:00;12.24;;;6.61;;
49800;SDS011;35698;50.232;30.540;2023-02-13T00:28:03;10.08;;;4.92;;
49800;SDS011;35698;50.232;30.540;2023-02-13T00:29:07;13.94;;;5.28;;
49800;SDS011;35698;50.232;30.540;2023-02-13T00:30:13;10.49;;;5.21;;
49800;SDS011;35698;50.232;30.540;2023-02-13T00:31:18;9.78;;;4.71;;
49800;SDS011;35698;50.232;30.540;2023-02-13T00:32:30;11.01;;;5.64;;
49800;SDS011;35698;50.232;30.540;2023-02-13T00:33:34;11.16;;;5.22;;
49800;SDS011;35698;50.232;30.540;2023-02-13T00:34:37;12.14;;;5.98;;
49800;SDS011;35698;50.232;30.540;2023-02-13T00:35:41;14.99;;;6.68;;
49800;SDS011;35698;50.232;30.540;2023-02-13T00:36:52;11.07;;;4.83;;
49800;SDS011;35698;50.232;30.540;2023-02-13T00:37:56;11.00;;;5.73;;
49800;SDS011;35698;50.232;30.540;2023-02-13T00:38:59;12.89;;;6.29;;
49800;SDS011;35698;50.232;30.540;2023-02-13T00:40:03;11.29;;;5.19;;
49800;SDS011;35698;50.232;30.540;2023-02-13T00:41:07;8.91;;;5.16;;
49800;SDS011;35698;50.232;30.540;2023-02-13T00:42:19;11.08;;;5.56;;
49800;SDS011;35698;50.232;30.540;2023-02-13T00:43:22;14.39;;;5.72;;
49800;SDS011;35698;50.232;30.540;2023-02-13T00:44:25;17.39;;;7.54;;
49800;SDS011;35698;50.232;30.540;2023-02-13T00:45:36;12.66;;;6.21;;
49800;SDS011;35698;50.232;30.540;2023-02-13T00:46:40;9.94;;;5.74;;
49800;SDS011;35698;50.232;30.540;2023-02-13T00:47:43;12.16;;;5.39;;
49800;SDS011;35698;50.232;30.540;2023-02-13T00:48:47;11.23;;;6.57;;
49800;SDS011;35698;50.232;30.540;2023-02-13T00:49:58;9.27;;;4.39;;
49800;SDS011;35698;50.232;30.540;2023-02-13T00:52:24;8.16;;;4.44;;
49800;SDS011;35698;50.232;30.540;2023-02-13T00:53:35;9.11;;;4.53;;
49800;SDS011;35698;50.232;30.540;2023-02-13T00:54:39;10.19;;;5.29;;
49800;SDS011;35698;50.232;30.540;2023-02-13T00:55:43;10.89;;;5.84;;
49800;SDS011;35698;50.232;30.540;2023-02-13T00:56:54;7.85;;;3.89;;
49800;SDS011;35698;50.232;30.540;2023-02-13T00:57:57;9.11;;;4.34;;
49800;SDS011;35698;50.232;30.540;2023-02-13T00:59:01;10.04;;;4.15;;
49800;SDS011;35698;50.232;30.540;2023-02-13T01:00:18;8.64;;;4.38;;
49800;SDS011;35698;50.232;30.540;2023-02-13T01:01:21;8.78;;;4.81;;
49800;SDS011;35698;50.232;30.540;2023-02-13T01:04:06;6.80;;;3.15;;
49800;SDS011;35698;50.232;30.540;2023-02-13T01:05:09;10.55;;;4.94;;
49800;SDS011;35698;50.232;30.540;2023-02-13T01:06:13;9.98;;;4.40;;
49800;SDS011;35698;50.232;30.540;2023-02-13T01:07:16;10.24;;;4.62;;
49800;SDS011;35698;50.232;30.540;2023-02-13T01:08:20;11.48;;;4.37;;
49800;SDS011;35698;50.232;30.540;2023-02-13T01:10:30;20.65;;;9.15;;
49800;SDS011;35698;50.232;30.540;2023-02-13T01:11:41;14.43;;;6.57;;
49800;SDS011;35698;50.232;30.540;2023-02-13T01:14:08;8.32;;;4.62;;
49800;SDS011;35698;50.232;30.540;2023-02-13T01:15:29;7.05;;;3.74;;
49800;SDS011;35698;50.232;30.540;2023-02-13T01:16:33;8.31;;;4.02;;
49800;SDS011;35698;50.232;30.540;2023-02-13T01:17:37;14.84;;;7.12;;
49800;SDS011;35698;50.232;30.540;2023-02-13T01:18:48;25.71;;;10.33;;
49800;SDS011;35698;50.232;30.540;2023-02-13T01:20:57;31.23;;;11.41;;
49800;SDS011;35698;50.232;30.540;2023-02-13T01:22:02;55.76;;;18.63;;
49800;SDS011;35698;50.232;30.540;2023-02-13T01:23:24;26.61;;;9.98;;
49800;SDS011;35698;50.232;30.540;2023-02-13T01:24:27;23.34;;;8.75;;
49800;SDS011;35698;50.232;30.540;2023-02-13T01:25:31;36.88;;;12.49;;
49800;SDS011;35698;50.232;30.540;2023-02-13T01:26:42;26.81;;;8.80;;
49800;SDS011;35698;50.232;30.540;2023-02-13T01:27:45;24.64;;;8.67;;
49800;SDS011;35698;50.232;30.540;2023-02-13T01:28:52;37.06;;;13.67;;
49800;SDS011;35698;50.232;30.540;2023-02-13T01:30:06;31.26;;;10.17;;
49800;SDS011;35698;50.232;30.540;2023-02-13T01:31:19;28.79;;;11.29;;
49800;SDS011;35698;50.232;30.540;2023-02-13T01:32:24;28.86;;;8.87;;
49800;SDS011;35698;50.232;30.540;2023-02-13T01:33:27;36.75;;;11.99;;
49800;SDS011;35698;50.232;30.540;2023-02-13T01:34:31;26.38;;;10.08;;
49800;SDS011;35698;50.232;30.540;2023-02-13T01:35:37;18.36;;;7.45;;
49800;SDS011;35698;50.232;30.540;2023-02-13T01:36:49;25.59;;;9.65;;
49800;SDS011;35698;50.232;30.540;2023-02-13T01:37:52;30.79;;;10.06;;
49800;SDS011;35698;50.232;30.540;2023-02-13T01:39:04;50.54;;;14.81;;
49800;SDS011;35698;50.232;30.540;2023-02-13T01:40:08;34.69;;;12.99;;
49800;SDS011;35698;50.232;30.540;2023-02-13T01:41:32;51.93;;;17.38;;
49800;SDS011;35698;50.232;30.540;2023-02-13T01:42:43;59.47;;;17.72;;
49800;SDS011;35698;50.232;30.540;2023-02-13T01:43:53;75.04;;;21.76;;
49800;SDS011;35698;50.232;30.540;2023-02-13T01:45:18;71.46;;;20.69;;
49800;SDS011;35698;50.232;30.540;2023-02-13T01:46:35;53.50;;;15.06;;
49800;SDS011;35698;50.232;30.540;2023-02-13T01:47:45;40.26;;;12.59;;
49800;SDS011;35698;50.232;30.540;2023-02-13T01:49:12;42.21;;;13.24;;
49800;SDS011;35698;50.232;30.540;2023-02-13T01:52:04;19.06;;;7.44;;
49800;SDS011;35698;50.232;30.540;2023-02-13T01:53:11;17.89;;;6.73;;
49800;SDS011;35698;50.232;30.540;2023-02-13T01:54:34;40.78;;;13.64;;
49800;SDS011;35698;50.232;30.540;2023-02-13T01:56:01;27.34;;;9.19;;
49800;SDS011;35698;50.232;30.540;2023-02-13T01:57:15;27.78;;;9.84;;
49800;SDS011;35698;50.232;30.540;2023-02-13T01:58:21;20.07;;;8.42;;
49800;SDS011;35698;50.232;30.540;2023-02-13T01:59:47;15.50;;;5.13;;
49800;SDS011;35698;50.232;30.540;2023-02-13T02:01:11;20.27;;;6.69;;
49800;SDS011;35698;50.232;30.540;2023-02-13T02:02:22;28.43;;;10.27;;
49800;SDS011;35698;50.232;30.540;2023-02-13T02:03:28;37.91;;;12.36;;
49800;SDS011;35698;50.232;30.540;2023-02-13T02:04:54;20.75;;;7.76;;
49800;SDS011;35698;50.232;30.540;2023-02-13T02:06:18;16.62;;;6.48;;
49800;SDS011;35698;50.232;30.540;2023-02-13T02:07:32;16.94;;;5.14;;
49800;SDS011;35698;50.232;30.540;2023-02-13T02:08:36;15.82;;;5.77;;
49800;SDS011;35698;50.232;30.540;2023-02-13T02:09:40;18.31;;;6.62;;
49800;SDS011;35698;50.232;30.540;2023-02-13T02:11:06;10.83;;;4.64;;
49800;SDS011;35698;50.232;30.540;2023-02-13T02:14:01;28.18;;;10.25;;
49800;SDS011;35698;50.232;30.540;2023-02-13T02:15:05;22.08;;;7.99;;
49800;SDS011;35698;50.232;30.540;2023-02-13T02:16:09;24.56;;;8.61;;
49800;SDS011;35698;50.232;30.540;2023-02-13T02:17:21;16.88;;;6.94;;
49800;SDS011;35698;50.232;30.540;2023-02-13T02:18:27;19.40;;;7.12;;
49800;SDS011;35698;50.232;30.540;2023-02-13T02:19:54;17.43;;;6.48;;
49800;SDS011;35698;50.232;30.540;2023-02-13T02:21:29;17.11;;;5.71;;
49800;SDS011;35698;50.232;30.540;2023-02-13T02:24:26;19.22;;;7.32;;
49800;SDS011;35698;50.232;30.540;2023-02-13T02:27:32;16.65;;;6.69;;
49800;SDS011;35698;50.232;30.540;2023-02-13T02:28:52;16.51;;;5.92;;
49800;SDS011;35698;50.232;30.540;2023-02-13T02:44:11;11.34;;;4.50;;
49800;SDS011;35698;50.232;30.540;2023-02-13T02:49:32;6.56;;;3.79;;
49800;SDS011;35698;50.232;30.540;2023-02-13T02:53:32;5.77;;;3.24;;
49800;SDS011;35698;50.232;30.540;2023-02-13T02:54:50;5.51;;;2.64;;
49800;SDS011;35698;50.232;30.540;2023-02-13T02:56:21;5.82;;;3.18;;
49800;SDS011;35698;50.232;30.540;2023-02-13T02:57:30;5.68;;;2.99;;
49800;SDS011;35698;50.232;30.540;2023-02-13T02:59:56;4.52;;;2.34;;
49800;SDS011;35698;50.232;30.540;2023-02-13T03:01:01;9.24;;;3.60;;
49800;SDS011;35698;50.232;30.540;2023-02-13T03:02:15;5.14;;;2.69;;
49800;SDS011;35698;50.232;30.540;2023-02-13T03:03:21;10.65;;;3.19;;
49800;SDS011;35698;50.232;30.540;2023-02-13T03:04:27;5.59;;;2.83;;
49800;SDS011;35698;50.232;30.540;2023-02-13T03:05:42;9.64;;;3.49;;
49800;SDS011;35698;50.232;30.540;2023-02-13T03:06:56;7.54;;;3.77;;
49800;SDS011;35698;50.232;30.540;2023-02-13T03:08:02;5.71;;;2.91;;
49800;SDS011;35698;50.232;30.540;2023-02-13T03:09:09;8.36;;;3.18;;
49800;SDS011;35698;50.232;30.540;2023-02-13T03:10:26;7.35;;;3.60;;
49800;SDS011;35698;50.232;30.540;2023-02-13T03:11:29;5.53;;;2.81;;
49800;SDS011;35698;50.232;30.540;2023-02-13T03:12:35;6.66;;;3.01;;
49800;SDS011;35698;50.232;30.540;2023-02-13T03:13:56;5.33;;;2.83;;
49800;SDS011;35698;50.232;30.540;2023-02-13T03:15:03;3.88;;;2.77;;
49800;SDS011;35698;50.232;30.540;2023-02-13T03:16:16;4.72;;;2.53;;
49800;SDS011;35698;50.232;30.540;2023-02-13T03:17:22;5.87;;;2.69;;
49800;SDS011;35698;50.232;30.540;2023-02-13T03:18:26;5.17;;;3.04;;
49800;SDS011;35698;50.232;30.540;2023-02-13T03:31:37;7.08;;;3.43;;
49800;SDS011;35698;50.232;30.540;2023-02-13T03:34:09;8.98;;;3.72;;
49800;SDS011;35698;50.232;30.540;2023-02-13T03:35:45;7.51;;;4.00;;
49800;SDS011;35698;50.232;30.540;2023-02-13T03:37:12;12.35;;;5.55;;
49800;SDS011;35698;50.232;30.540;2023-02-13T03:38:21;11.72;;;5.82;;
49800;SDS011;35698;50.232;30.540;2023-02-13T03:39:43;11.28;;;5.42;;
49800;SDS011;35698;50.232;30.540;2023-02-13T03:42:35;8.40;;;3.99;;
49800;SDS011;35698;50.232;30.540;2023-02-13T03:43:44;10.33;;;4.94;;
49800;SDS011;35698;50.232;30.540;2023-02-13T03:45:02;6.98;;;3.66;;
49800;SDS011;35698;50.232;30.540;2023-02-13T03:46:10;8.21;;;4.84;;
49800;SDS011;35698;50.232;30.540;2023-02-13T03:47:40;7.09;;;3.63;;
49800;SDS011;35698;50.232;30.540;2023-02-13T03:48:46;8.20;;;3.94;;
49800;SDS011;35698;50.232;30.540;2023-02-13T03:49:53;7.16;;;4.19;;
49800;SDS011;35698;50.232;30.540;2023-02-13T03:56:15;5.93;;;3.11;;
49800;SDS011;35698;50.232;30.540;2023-02-13T03:57:20;5.41;;;3.01;;
49800;SDS011;35698;50.232;30.540;2023-02-13T03:58:27;5.94;;;3.22;;
49800;SDS011;35698;50.232;30.540;2023-02-13T03:59:34;5.57;;;2.74;;
49800;SDS011;35698;50.232;30.540;2023-02-13T04:00:48;4.91;;;3.14;;
49800;SDS011;35698;50.232;30.540;2023-02-13T04:02:02;5.52;;;3.17;;
49800;SDS011;35698;50.232;30.540;2023-02-13T04:04:58;4.82;;;2.82;;
49800;SDS011;35698;50.232;30.540;2023-02-13T04:06:12;5.42;;;3.01;;
49800;SDS011;35698;50.232;30.540;2023-02-13T04:07:18;4.52;;;2.72;;
49800;SDS011;35698;50.232;30.540;2023-02-13T04:09:47;5.34;;;3.07;;
49800;SDS011;35698;50.232;30.540;2023-02-13T04:10:58;5.53;;;3.64;;
49800;SDS011;35698;50.232;30.540;2023-02-13T04:12:42;5.83;;;3.16;;
49800;SDS011;35698;50.232;30.540;2023-02-13T04:15:09;7.46;;;3.28;;
49800;SDS011;35698;50.232;30.540;2023-02-13T04:16:17;5.70;;;3.24;;
49800;SDS011;35698;50.232;30.540;2023-02-13T04:17:58;6.22;;;3.04;;
49800;SDS011;35698;50.232;30.540;2023-02-13T04:19:13;4.32;;;2.48;;
49800;SDS011;35698;50.232;30.540;2023-02-13T04:20:17;6.25;;;3.45;;
49800;SDS011;35698;50.232;30.540;2023-02-13T04:21:32;6.47;;;3.04;;
49800;SDS011;35698;50.232;30.540;2023-02-13T04:22:44;7.81;;;3.79;;
49800;SDS011;35698;50.232;30.540;2023-02-13T04:23:48;5.00;;;2.79;;
49800;SDS011;35698;50.232;30.540;2023-02-13T04:25:11;5.58;;;3.08;;
49800;SDS011;35698;50.232;30.540;2023-02-13T04:26:30;9.03;;;3.48;;
49800;SDS011;35698;50.232;30.540;2023-02-13T04:27:45;4.50;;;3.11;;
49800;SDS011;35698;50.232;30.540;2023-02-13T04:29:07;5.23;;;2.89;;
49800;SDS011;35698;50.232;30.540;2023-02-13T04:30:12;4.79;;;2.59;;
49800;SDS011;35698;50.232;30.540;2023-02-13T04:31:33;5.66;;;2.91;;
49800;SDS011;35698;50.232;30.540;2023-02-13T04:32:45;9.05;;;4.52;;
49800;SDS011;35698;50.232;30.540;2023-02-13T04:33:48;6.64;;;3.31;;
49800;SDS011;35698;50.232;30.540;2023-02-13T04:34:51;7.64;;;3.47;;
49800;SDS011;35698;50.232;30.540;2023-02-13T04:36:14;8.57;;;3.42;;
49800;SDS011;35698;50.232;30.540;2023-02-13T04:37:25;7.41;;;2.96;;
49800;SDS011;35698;50.232;30.540;2023-02-13T04:38:28;6.51;;;2.97;;
49800;SDS011;35698;50.232;30.540;2023-02-13T04:39:31;5.80;;;3.44;;
49800;SDS011;35698;50.232;30.540;2023-02-13T04:40:53;6.33;;;2.62;;
49800;SDS011;35698;50.232;30.540;2023-02-13T04:42:14;4.47;;;2.63;;
49800;SDS011;35698;50.232;30.540;2023-02-13T04:43:25;8.64;;;3.82;;
49800;SDS011;35698;50.232;30.540;2023-02-13T04:45:52;7.73;;;3.27;;
49800;SDS011;35698;50.232;30.540;2023-02-13T04:47:13;6.10;;;3.38;;
49800;SDS011;35698;50.232;30.540;2023-02-13T04:48:35;4.70;;;2.99;;
49800;SDS011;35698;50.232;30.540;2023-02-13T04:49:40;7.13;;;2.78;;
49800;SDS011;35698;50.232;30.540;2023-02-13T04:50:51;5.92;;;2.99;;
49800;SDS011;35698;50.232;30.540;2023-02-13T04:52:59;4.93;;;2.58;;
49800;SDS011;35698;50.232;30.540;2023-02-13T04:55:19;5.77;;;3.22;;
49800;SDS011;35698;50.232;30.540;2023-02-13T04:56:22;4.47;;;3.17;;
49800;SDS011;35698;50.232;30.540;2023-02-13T04:57:25;6.64;;;3.25;;
49800;SDS011;35698;50.232;30.540;2023-02-13T04:58:29;6.29;;;3.47;;
49800;SDS011;35698;50.232;30.540;2023-02-13T04:59:32;7.60;;;3.84;;
49800;SDS011;35698;50.232;30.540;2023-02-13T05:00:35;6.10;;;3.23;;
49800;SDS011;35698;50.232;30.540;2023-02-13T05:01:46;8.08;;;3.39;;
49800;SDS011;35698;50.232;30.540;2023-02-13T05:02:50;6.67;;;3.40;;
49800;SDS011;35698;50.232;30.540;2023-02-13T05:03:53;5.06;;;3.12;;
49800;SDS011;35698;50.232;30.540;2023-02-13T05:04:56;6.03;;;3.37;;
49800;SDS011;35698;50.232;30.540;2023-02-13T05:06:18;5.75;;;3.49;;
49800;SDS011;35698;50.232;30.540;2023-02-13T05:07:29;6.86;;;3.83;;
49800;SDS011;35698;50.232;30.540;2023-02-13T05:08:33;4.68;;;3.29;;
49800;SDS011;35698;50.232;30.540;2023-02-13T05:09:36;6.56;;;3.13;;
49800;SDS011;35698;50.232;30.540;2023-02-13T05:10:47;6.02;;;3.23;;
49800;SDS011;35698;50.232;30.540;2023-02-13T05:11:51;5.84;;;3.61;;
49800;SDS011;35698;50.232;30.540;2023-02-13T05:13:02;5.65;;;3.47;;
49800;SDS011;35698;50.232;30.540;2023-02-13T05:14:06;6.12;;;3.40;;
49800;SDS011;35698;50.232;30.540;2023-02-13T05:15:12;4.68;;;3.27;;
49800;SDS011;35698;50.232;30.540;2023-02-13T05:16:23;6.56;;;3.30;;
49800;SDS011;35698;50.232;30.540;2023-02-13T05:17:27;5.38;;;3.21;;
49800;SDS011;35698;50.232;30.540;2023-02-13T05:18:31;9.18;;;3.52;;
49800;SDS011;35698;50.232;30.540;2023-02-13T05:19:42;8.76;;;3.67;;
49800;SDS011;35698;50.232;30.540;2023-02-13T05:20:45;5.07;;;2.89;;
49800;SDS011;35698;50.232;30.540;2023-02-13T05:21:56;5.77;;;3.32;;
49800;SDS011;35698;50.232;30.540;2023-02-13T05:23:00;6.81;;;3.16;;
49800;SDS011;35698;50.232;30.540;2023-02-13T05:24:11;11.93;;;3.74;;
49800;SDS011;35698;50.232;30.540;2023-02-13T05:25:14;6.16;;;3.05;;
49800;SDS011;35698;50.232;30.540;2023-02-13T05:26:36;6.47;;;3.62;;
49800;SDS011;35698;50.232;30.540;2023-02-13T05:27:47;12.36;;;3.55;;
49800;SDS011;35698;50.232;30.540;2023-02-13T05:28:50;5.38;;;3.09;;
49800;SDS011;35698;50.232;30.540;2023-02-13T05:30:12;6.59;;;3.15;;
49800;SDS011;35698;50.232;30.540;2023-02-13T05:31:24;7.79;;;4.13;;
49800;SDS011;35698;50.232;30.540;2023-02-13T05:32:28;5.70;;;3.76;;
49800;SDS011;35698;50.232;30.540;2023-02-13T05:33:49;4.92;;;2.98;;
49800;SDS011;35698;50.232;30.540;2023-02-13T05:35:10;5.73;;;3.38;;
49800;SDS011;35698;50.232;30.540;2023-02-13T05:36:21;5.78;;;3.25;;
49800;SDS011;35698;50.232;30.540;2023-02-13T05:37:25;6.78;;;3.81;;
49800;SDS011;35698;50.232;30.540;2023-02-13T05:38:46;5.57;;;3.66;;
49800;SDS011;35698;50.232;30.540;2023-02-13T05:40:08;6.26;;;3.97;;
49800;SDS011;35698;50.232;30.540;2023-02-13T05:41:21;6.37;;;3.24;;
49800;SDS011;35698;50.232;30.540;2023-02-13T05:42:24;5.97;;;3.51;;
49800;SDS011;35698;50.232;30.540;2023-02-13T05:43:46;5.74;;;3.05;;
49800;SDS011;35698;50.232;30.540;2023-02-13T05:45:07;5.88;;;3.53;;
49800;SDS011;35698;50.232;30.540;2023-02-13T05:46:20;6.84;;;4.20;;
49800;SDS011;35698;50.232;30.540;2023-02-13T05:47:23;7.36;;;4.16;;
49800;SDS011;35698;50.232;30.540;2023-02-13T05:48:45;7.26;;;3.16;;
49800;SDS011;35698;50.232;30.540;2023-02-13T05:51:19;7.13;;;3.51;;
49800;SDS011;35698;50.232;30.540;2023-02-13T05:52:22;5.54;;;3.31;;
49800;SDS011;35698;50.232;30.540;2023-02-13T05:53:44;7.63;;;3.67;;
49800;SDS011;35698;50.232;30.540;2023-02-13T05:55:06;5.56;;;3.25;;
49800;SDS011;35698;50.232;30.540;2023-02-13T05:56:17;7.91;;;4.44;;
49800;SDS011;35698;50.232;30.540;2023-02-13T05:57:21;5.78;;;3.06;;
49800;SDS011;35698;50.232;30.540;2023-02-13T05:58:32;6.71;;;3.70;;
49800;SDS011;35698;50.232;30.540;2023-02-13T05:59:36;5.98;;;3.57;;
49800;SDS011;35698;50.232;30.540;2023-02-13T06:00:40;7.11;;;3.77;;
49800;SDS011;35698;50.232;30.540;2023-02-13T06:01:43;7.46;;;3.61;;
49800;SDS011;35698;50.232;30.540;2023-02-13T06:02:46;7.71;;;3.89;;
49800;SDS011;35698;50.232;30.540;2023-02-13T06:03:57;6.20;;;4.03;;
49800;SDS011;35698;50.232;30.540;2023-02-13T06:05:03;8.35;;;4.58;;
49800;SDS011;35698;50.232;30.540;2023-02-13T06:06:07;6.62;;;3.61;;
49800;SDS011;35698;50.232;30.540;2023-02-13T06:07:10;6.01;;;3.89;;
49800;SDS011;35698;50.232;30.540;2023-02-13T06:08:14;7.76;;;4.89;;
49800;SDS011;35698;50.232;30.540;2023-02-13T06:09:35;8.16;;;4.26;;
49800;SDS011;35698;50.232;30.540;2023-02-13T06:10:47;5.79;;;3.96;;
49800;SDS011;35698;50.232;30.540;2023-02-13T06:11:50;8.00;;;4.53;;
49800;SDS011;35698;50.232;30.540;2023-02-13T06:12:54;6.91;;;4.04;;
49800;SDS011;35698;50.232;30.540;2023-02-13T06:14:05;9.24;;;4.98;;
49800;SDS011;35698;50.232;30.540;2023-02-13T06:15:08;10.83;;;4.69;;
49800;SDS011;35698;50.232;30.540;2023-02-13T06:16:19;9.26;;;4.98;;
49800;SDS011;35698;50.232;30.540;2023-02-13T06:17:23;12.38;;;4.23;;
49800;SDS011;35698;50.232;30.540;2023-02-13T06:18:29;7.32;;;3.88;;
49800;SDS011;35698;50.232;30.540;2023-02-13T06:19:32;8.48;;;4.12;;
49800;SDS011;35698;50.232;30.540;2023-02-13T06:20:43;8.62;;;4.69;;
49800;SDS011;35698;50.232;30.540;2023-02-13T06:21:47;6.15;;;3.98;;
49800;SDS011;35698;50.232;30.540;2023-02-13T06:22:50;7.13;;;4.21;;
49800;SDS011;35698;50.232;30.540;2023-02-13T06:24:03;9.80;;;4.12;;
49800;SDS011;35698;50.232;30.540;2023-02-13T06:25:07;6.34;;;3.95;;
49800;SDS011;35698;50.232;30.540;2023-02-13T06:26:19;7.24;;;4.15;;
49800;SDS011;35698;50.232;30.540;2023-02-13T06:27:22;10.96;;;5.31;;
49800;SDS011;35698;50.232;30.540;2023-02-13T06:28:26;8.20;;;3.98;;
49800;SDS011;35698;50.232;30.540;2023-02-13T06:29:29;7.27;;;4.69;;
49800;SDS011;35698;50.232;30.540;2023-02-13T06:30:35;7.16;;;4.48;;
49800;SDS011;35698;50.232;30.540;2023-02-13T06:31:57;6.03;;;4.08;;
49800;SDS011;35698;50.232;30.540;2023-02-13T06:33:08;7.74;;;4.31;;
49800;SDS011;35698;50.232;30.540;2023-02-13T06:34:11;7.78;;;4.12;;
49800;SDS011;35698;50.232;30.540;2023-02-13T06:35:15;7.44;;;4.64;;
49800;SDS011;35698;50.232;30.540;2023-02-13T06:36:26;8.24;;;4.16;;
49800;SDS011;35698;50.232;30.540;2023-02-13T06:37:29;7.87;;;5.07;;
49800;SDS011;35698;50.232;30.540;2023-02-13T06:38:40;9.32;;;5.18;;
49800;SDS011;35698;50.232;30.540;2023-02-13T06:39:44;9.53;;;4.64;;
49800;SDS011;35698;50.232;30.540;2023-02-13T06:41:05;8.56;;;4.67;;
49800;SDS011;35698;50.232;30.540;2023-02-13T06:42:09;7.23;;;4.08;;
49800;SDS011;35698;50.232;30.540;2023-02-13T06:43:20;8.93;;;5.03;;
49800;SDS011;35698;50.232;30.540;2023-02-13T06:44:23;10.05;;;5.65;;
49800;SDS011;35698;50.232;30.540;2023-02-13T06:45:45;9.10;;;4.83;;
49800;SDS011;35698;50.232;30.540;2023-02-13T06:46:56;8.79;;;5.19;;
49800;SDS011;35698;50.232;30.540;2023-02-13T06:47:59;8.05;;;4.57;;
49800;SDS011;35698;50.232;30.540;2023-02-13T06:49:21;10.61;;;5.08;;
49800;SDS011;35698;50.232;30.540;2023-02-13T06:50:32;8.46;;;4.77;;
49800;SDS011;35698;50.232;30.540;2023-02-13T06:51:35;8.72;;;4.60;;
49800;SDS011;35698;50.232;30.540;2023-02-13T06:52:56;10.10;;;5.16;;
49800;SDS011;35698;50.232;30.540;2023-02-13T06:54:08;8.51;;;5.14;;
49800;SDS011;35698;50.232;30.540;2023-02-13T06:55:11;10.99;;;6.09;;
49800;SDS011;35698;50.232;30.540;2023-02-13T06:56:33;13.26;;;5.71;;
49800;SDS011;35698;50.232;30.540;2023-02-13T06:57:54;17.81;;;7.56;;
49800;SDS011;35698;50.232;30.540;2023-02-13T06:59:08;8.26;;;5.22;;
49800;SDS011;35698;50.232;30.540;2023-02-13T07:00:12;10.45;;;5.80;;
49800;SDS011;35698;50.232;30.540;2023-02-13T07:01:36;8.43;;;5.32;;
49800;SDS011;35698;50.232;30.540;2023-02-13T07:03:02;13.81;;;5.61;;
49800;SDS011;35698;50.232;30.540;2023-02-13T07:04:19;9.04;;;5.33;;
49800;SDS011;35698;50.232;30.540;2023-02-13T07:05:23;12.16;;;6.19;;
49800;SDS011;35698;50.232;30.540;2023-02-13T07:06:53;10.76;;;4.88;;
49800;SDS011;35698;50.232;30.540;2023-02-13T07:08:15;11.58;;;6.78;;
49800;SDS011;35698;50.232;30.540;2023-02-13T07:09:26;15.86;;;6.77;;
49800;SDS011;35698;50.232;30.540;2023-02-13T07:10:29;10.58;;;5.81;;
49800;SDS011;35698;50.232;30.540;2023-02-13T07:11:40;8.91;;;5.31;;
49800;SDS011;35698;50.232;30.540;2023-02-13T07:12:43;10.24;;;5.26;;
49800;SDS011;35698;50.232;30.540;2023-02-13T07:13:54;9.82;;;5.28;;
49800;SDS011;35698;50.232;30.540;2023-02-13T07:14:58;9.81;;;5.76;;
49800;SDS011;35698;50.232;30.540;2023-02-13T07:16:09;8.99;;;4.91;;
49800;SDS011;35698;50.232;30.540;2023-02-13T07:17:12;9.58;;;5.37;;
49800;SDS011;35698;50.232;30.540;2023-02-13T07:18:23;10.44;;;5.15;;
49800;SDS011;35698;50.232;30.540;2023-02-13T07:19:27;9.53;;;5.75;;
49800;SDS011;35698;50.232;30.540;2023-02-13T07:20:38;9.76;;;4.98;;
49800;SDS011;35698;50.232;30.540;2023-02-13T07:21:41;9.49;;;5.29;;
49800;SDS011;35698;50.232;30.540;2023-02-13T07:22:52;11.55;;;6.48;;
49800;SDS011;35698;50.232;30.540;2023-02-13T07:24:07;10.34;;;5.74;;
49800;SDS011;35698;50.232;30.540;2023-02-13T07:25:29;9.68;;;5.45;;
49800;SDS011;35698;50.232;30.540;2023-02-13T07:26:40;7.97;;;4.94;;
49800;SDS011;35698;50.232;30.540;2023-02-13T07:28:05;11.46;;;6.31;;
49800;SDS011;35698;50.232;30.540;2023-02-13T07:29:08;10.21;;;6.31;;
49800;SDS011;35698;50.232;30.540;2023-02-13T07:30:14;14.74;;;6.82;;
49800;SDS011;35698;50.232;30.540;2023-02-13T07:31:25;9.41;;;5.74;;
49800;SDS011;35698;50.232;30.540;2023-02-13T07:32:29;12.09;;;6.66;;
49800;SDS011;35698;50.232;30.540;2023-02-13T07:33:33;13.48;;;6.63;;
49800;SDS011;35698;50.232;30.540;2023-02-13T07:34:37;8.88;;;5.28;;
49800;SDS011;35698;50.232;30.540;2023-02-13T07:35:58;11.71;;;6.16;;
49800;SDS011;35698;50.232;30.540;2023-02-13T07:37:09;9.89;;;6.15;;
49800;SDS011;35698;50.232;30.540;2023-02-13T07:38:12;7.78;;;5.01;;
49800;SDS011;35698;50.232;30.540;2023-02-13T07:39:16;10.74;;;6.08;;
49800;SDS011;35698;50.232;30.540;2023-02-13T07:40:21;10.20;;;5.63;;
49800;SDS011;35698;50.232;30.540;2023-02-13T07:41:42;10.16;;;5.68;;
49800;SDS011;35698;50.232;30.540;2023-02-13T07:42:54;8.82;;;5.49;;
49800;SDS011;35698;50.232;30.540;2023-02-13T07:43:58;9.54;;;5.67;;
49800;SDS011;35698;50.232;30.540;2023-02-13T07:45:04;10.48;;;6.22;;
49800;SDS011;35698;50.232;30.540;2023-02-13T07:46:16;8.02;;;5.82;;
49800;SDS011;35698;50.232;30.540;2023-02-13T07:47:20;10.23;;;6.54;;
49800;SDS011;35698;50.232;30.540;2023-02-13T07:48:32;9.36;;;6.06;;
49800;SDS011;35698;50.232;30.540;2023-02-13T07:49:35;9.09;;;6.62;;
49800;SDS011;35698;50.232;30.540;2023-02-13T07:50:46;9.29;;;5.87;;
49800;SDS011;35698;50.232;30.540;2023-02-13T07:51:49;12.29;;;6.33;;
49800;SDS011;35698;50.232;30.540;2023-02-13T07:53:11;10.18;;;6.71;;
49800;SDS011;35698;50.232;30.540;2023-02-13T07:54:22;11.56;;;6.69;;
49800;SDS011;35698;50.232;30.540;2023-02-13T07:55:25;9.98;;;6.73;;
49800;SDS011;35698;50.232;30.540;2023-02-13T07:56:47;10.45;;;6.47;;
49800;SDS011;35698;50.232;30.540;2023-02-13T07:58:01;10.20;;;6.54;;
49800;SDS011;35698;50.232;30.540;2023-02-13T07:59:04;12.00;;;6.55;;